Time;durP1;ratioP1;P1;durP2;ratioP2;P2;SDS_P1;SDS_P2;PMS_P1;PMS_P2;Temp;Humidity;BMP_temperature;BMP_pressure;BME280_temperature;BME280_humidity;BME280_pressure;Samples;Min_cycle;Max_cycle;Signal;HPM_P1;HPM_P2
2021/01/31 06:17:13;;;;;;;1.40;1.40;;;-1.60;99.90;;;;;;6204187;22;20194;-74
2021/01/31 06:19:42;;;;;;;1.40;1.40;;;-1.60;99.90;;;;;;6227485;23;20165;-74
2021/01/31 06:22:12;;;;;;;1.53;1.53;;;-1.70;99.90;;;;;;6231026;23;20173;-74
2021/01/31 06:24:47;;;;;;;1.40;1.40;;;-1.70;99.90;;;;;;6229624;23;20174;-74
2021/01/31 06:27:27;;;;;;;1.30;1.30;;;-1.70;99.90;;;;;;6225902;23;20193;-75
2021/01/31 06:30:05;;;;;;;1.40;1.40;;;-1.60;99.90;;;;;;6216340;23;20224;-73
2021/01/31 06:32:36;;;;;;;1.30;1.30;;;-1.60;99.90;;;;;;6213859;23;20217;-73
2021/01/31 06:35:07;;;;;;;1.70;1.70;;;-1.80;99.90;;;;;;6214318;23;20667;-73
2021/01/31 06:37:43;;;;;;;1.40;1.40;;;-1.50;99.90;;;;;;6214215;23;20178;-73
2021/01/31 06:40:22;;;;;;;1.23;1.23;;;-1.50;99.90;;;;;;6214492;23;20165;-73
2021/01/31 06:42:57;;;;;;;1.30;1.30;;;-1.50;99.90;;;;;;6214039;23;20213;-73
2021/01/31 06:45:34;;;;;;;1.43;1.43;;;-1.50;99.90;;;;;;6213934;23;20220;-73
2021/01/31 06:48:36;;;;;;;1.70;1.70;;;-1.50;99.90;;;;;;6214742;23;20212;-73
2021/01/31 06:51:32;;;;;;;1.50;1.50;;;-1.70;99.90;;;;;;6214417;23;20161;-73
2021/01/31 06:54:26;;;;;;;1.40;1.40;;;-2.10;99.90;;;;;;6213965;23;20602;-73
2021/01/31 06:57:23;;;;;;;1.40;1.40;;;-2.00;99.90;;;;;;6212594;23;20202;-74
2021/01/31 07:00:32;;;;;;;1.30;1.30;;;-1.80;99.90;;;;;;6213139;23;20185;-75
2021/01/31 07:03:37;;;;;;;1.50;1.50;;;-1.70;99.90;;;;;;6099030;23;20516;-73
2021/01/31 07:06:20;;;;;;;1.60;1.60;;;-1.80;99.90;;;;;;6178409;23;20575;-73
2021/01/31 07:09:12;;;;;;;1.60;1.60;;;-1.90;99.90;;;;;;6209997;23;20166;-73
2021/01/31 07:11:42;;;;;;;1.50;1.50;;;;;;;;;;6211927;23;20229;-72
2021/01/31 07:14:26;;;;;;;1.50;1.50;;;-2.20;99.90;;;;;;6211370;23;20161;-72
2021/01/31 07:17:00;;;;;;;1.40;1.40;;;-2.20;99.90;;;;;;6212377;23;20210;-73
2021/01/31 07:19:31;;;;;;;1.40;1.40;;;-2.20;99.90;;;;;;6214742;23;20158;-75
2021/01/31 07:22:05;;;;;;;1.40;1.40;;;-2.20;99.90;;;;;;6214732;23;20181;-76
2021/01/31 07:24:44;;;;;;;1.60;1.60;;;-2.20;99.90;;;;;;6214238;23;20212;-74
2021/01/31 07:27:20;;;;;;;1.40;1.40;;;-2.00;99.90;;;;;;6213887;23;20197;-76
2021/01/31 07:30:00;;;;;;;1.57;1.57;;;-2.00;99.90;;;;;;6214425;23;20481;-76
2021/01/31 07:32:41;;;;;;;1.40;1.40;;;-1.90;99.90;;;;;;6214196;23;20162;-77
2021/01/31 07:35:11;;;;;;;1.53;1.53;;;-1.90;99.90;;;;;;6214623;23;20158;-76
2021/01/31 07:37:42;;;;;;;1.50;1.50;;;-1.70;99.90;;;;;;6214305;23;20287;-76
2021/01/31 07:40:16;;;;;;;1.40;1.40;;;-1.70;99.90;;;;;;6214559;23;20212;-76
2021/01/31 07:42:44;;;;;;;1.30;1.30;;;-1.50;99.90;;;;;;6214020;23;20171;-75
2021/01/31 07:45:15;;;;;;;1.37;1.37;;;-1.50;99.90;;;;;;6214119;23;20680;-75
2021/01/31 07:47:42;;;;;;;1.37;1.37;;;-1.40;99.90;;;;;;6214169;23;20213;-74
2021/01/31 07:50:19;;;;;;;1.43;1.43;;;-1.50;99.90;;;;;;6213785;23;20229;-74
2021/01/31 07:52:52;;;;;;;1.50;1.50;;;-1.60;99.90;;;;;;6214260;23;20162;-75
2021/01/31 07:55:28;;;;;;;1.33;1.33;;;-1.20;99.90;;;;;;6210707;23;20162;-76
2021/01/31 07:58:38;;;;;;;1.30;1.30;;;-1.60;99.90;;;;;;6213471;23;20165;-76
2021/01/31 08:01:13;;;;;;;1.50;1.50;;;-1.40;99.90;;;;;;6217977;23;20162;-76
2021/01/31 08:03:42;;;;;;;1.40;1.40;;;-1.30;99.90;;;;;;6214995;23;20161;-75
2021/01/31 08:06:33;;;;;;;1.60;1.60;;;-1.50;99.90;;;;;;6215624;23;20202;-76
2021/01/31 08:09:01;;;;;;;1.50;1.50;;;-1.10;99.90;;;;;;6216168;23;20189;-77
2021/01/31 08:11:54;;;;;;;1.50;1.50;;;-1.20;99.90;;;;;;6217647;23;20182;-77
2021/01/31 08:14:58;;;;;;;1.40;1.40;;;-1.10;99.90;;;;;;6224152;23;20170;-77
2021/01/31 08:18:08;;;;;;;1.40;1.40;;;-1.00;99.90;;;;;;6214746;23;20255;-77
2021/01/31 08:20:41;;;;;;;1.40;1.40;;;-1.00;99.90;;;;;;6155305;23;20207;-78
2021/01/31 08:23:43;;;;;;;1.30;1.30;;;-1.00;99.90;;;;;;6211013;23;20174;-77
2021/01/31 08:26:11;;;;;;;1.40;1.40;;;-0.90;99.90;;;;;;6215711;23;20432;-77
2021/01/31 08:28:56;;;;;;;1.40;1.40;;;-0.90;99.90;;;;;;6214197;23;20181;-77
2021/01/31 08:31:23;;;;;;;1.50;1.50;;;-0.90;99.90;;;;;;6213995;23;20166;-77
2021/01/31 08:34:00;;;;;;;1.43;1.43;;;-0.20;99.90;;;;;;6214395;23;20482;-76
2021/01/31 08:36:29;;;;;;;1.40;1.40;;;-1.00;99.90;;;;;;6214015;23;20194;-75
2021/01/31 08:38:58;;;;;;;1.40;1.40;;;-1.00;99.90;;;;;;6213544;23;20174;-76
2021/01/31 08:41:39;;;;;;;1.43;1.43;;;-1.00;99.90;;;;;;6213526;23;20182;-76
2021/01/31 08:44:48;;;;;;;1.50;1.50;;;-1.10;99.90;;;;;;6215113;23;20162;-77
2021/01/31 08:47:15;;;;;;;1.60;1.60;;;-1.10;99.90;;;;;;6202898;23;20220;-76
2021/01/31 08:49:42;;;;;;;1.50;1.50;;;-1.00;99.90;;;;;;6210642;23;20202;-77
2021/01/31 08:52:13;;;;;;;1.40;1.40;;;-0.90;99.90;;;;;;6212836;23;20178;-76
2021/01/31 08:54:40;;;;;;;1.37;1.37;;;-0.80;99.90;;;;;;6213326;23;20474;-76
2021/01/31 08:57:13;;;;;;;1.40;1.40;;;-0.90;99.90;;;;;;6212951;23;20229;-76
2021/01/31 08:59:47;;;;;;;1.40;1.40;;;-0.80;99.90;;;;;;6213450;23;20470;-76
2021/01/31 09:02:25;;;;;;;1.33;1.33;;;-0.70;99.90;;;;;;6214080;23;20189;-76
2021/01/31 09:04:55;;;;;;;1.40;1.40;;;-0.60;99.90;;;;;;6213301;23;20182;-75
2021/01/31 09:07:25;;;;;;;1.50;1.50;;;-0.80;99.90;;;;;;6213400;23;20779;-76
2021/01/31 09:09:55;;;;;;;1.60;1.60;;;-0.80;99.90;;;;;;6215176;23;20166;-79
2021/01/31 09:12:25;;;;;;;1.40;1.40;;;-0.80;99.90;;;;;;6215335;23;20563;-76
2021/01/31 09:15:03;;;;;;;1.60;1.60;;;-0.90;99.90;;;;;;6214857;23;20178;-76
2021/01/31 09:17:30;;;;;;;1.50;1.50;;;-0.90;99.90;;;;;;6215628;23;20206;-76
2021/01/31 09:20:13;;;;;;;1.60;1.60;;;-0.80;99.90;;;;;;6214916;23;20178;-76
2021/01/31 09:22:41;;;;;;;1.50;1.50;;;-0.70;99.90;;;;;;6215340;23;20159;-76
2021/01/31 09:25:11;;;;;;;1.30;1.30;;;-0.70;99.90;;;;;;6215268;23;20182;-76
2021/01/31 09:27:46;;;;;;;1.40;1.40;;;-0.60;99.90;;;;;;6215559;23;20224;-76
2021/01/31 09:30:16;;;;;;;1.40;1.40;;;-0.80;99.90;;;;;;6215105;23;20174;-76
2021/01/31 09:32:47;;;;;;;1.43;1.43;;;-0.60;99.90;;;;;;6215123;23;20541;-76
2021/01/31 09:35:20;;;;;;;1.40;1.40;;;-0.40;99.90;;;;;;6215078;23;20212;-76
2021/01/31 09:37:47;;;;;;;1.50;1.50;;;-0.50;99.90;;;;;;6214428;23;20178;-76
2021/01/31 09:40:15;;;;;;;1.30;1.30;;;0.00;99.90;;;;;;6214150;23;20236;-76
2021/01/31 09:42:44;;;;;;;1.40;1.40;;;-0.30;99.90;;;;;;6217467;23;20228;-78
2021/01/31 09:45:25;;;;;;;1.40;1.40;;;-0.30;99.90;;;;;;6217333;23;20182;-78
2021/01/31 09:47:52;;;;;;;1.30;1.30;;;-0.30;99.90;;;;;;6214404;23;20213;-76
2021/01/31 09:50:20;;;;;;;1.30;1.30;;;-0.20;99.90;;;;;;6214200;23;20182;-75
2021/01/31 09:52:49;;;;;;;1.50;1.50;;;0.00;99.90;;;;;;6214950;23;20174;-76
2021/01/31 09:55:27;;;;;;;1.30;1.30;;;0.40;99.90;;;;;;6216071;23;20178;-76
2021/01/31 09:57:56;;;;;;;1.30;1.30;;;0.20;99.90;;;;;;6218536;23;20248;-76
2021/01/31 10:00:29;;;;;;;1.30;1.30;;;0.20;99.90;;;;;;6216810;23;20578;-76
2021/01/31 10:03:05;;;;;;;1.23;1.23;;;0.10;99.90;;;;;;6214688;23;20233;-77
2021/01/31 10:05:34;;;;;;;1.30;1.30;;;0.10;99.90;;;;;;6214472;23;20201;-77
2021/01/31 10:08:04;;;;;;;1.40;1.40;;;0.10;99.90;;;;;;6214563;23;20174;-77
2021/01/31 10:10:35;;;;;;;1.40;1.40;;;0.10;99.90;;;;;;6213868;23;20166;-76
2021/01/31 10:13:25;;;;;;;1.30;1.30;;;0.00;99.90;;;;;;6214076;23;20197;-77
2021/01/31 10:15:55;;;;;;;1.50;1.50;;;0.20;99.90;;;;;;6214289;23;20257;-76
2021/01/31 10:18:30;;;;;;;1.40;1.40;;;0.30;99.90;;;;;;6214578;23;20163;-74
2021/01/31 10:21:15;;;;;;;1.40;1.40;;;0.50;99.90;;;;;;6214380;23;20181;-76
2021/01/31 10:23:43;;;;;;;1.50;1.50;;;0.80;99.90;;;;;;6213804;23;20162;-75
2021/01/31 10:26:14;;;;;;;1.40;1.40;;;0.40;99.90;;;;;;6214306;23;20194;-75
2021/01/31 10:28:48;;;;;;;1.30;1.30;;;0.10;99.90;;;;;;6214212;23;20186;-76
2021/01/31 10:31:30;;;;;;;1.50;1.50;;;0.10;99.90;;;;;;6214672;23;20584;-75
2021/01/31 10:34:00;;;;;;;1.40;1.40;;;0.00;99.90;;;;;;6214719;23;20159;-76
2021/01/31 10:36:33;;;;;;;1.60;1.60;;;0.10;99.90;;;;;;6214748;23;20198;-76
2021/01/31 10:39:03;;;;;;;1.40;1.40;;;0.20;99.90;;;;;;6214855;23;20162;-76
2021/01/31 10:41:30;;;;;;;1.50;1.50;;;0.40;99.90;;;;;;6212921;23;20178;-77
2021/01/31 10:44:03;;;;;;;1.40;1.40;;;0.50;99.90;;;;;;6213697;23;20174;-76
2021/01/31 10:46:34;;;;;;;1.30;1.30;;;0.80;99.90;;;;;;6214414;23;20256;-76
2021/01/31 10:49:01;;;;;;;1.30;1.30;;;0.80;99.90;;;;;;6213483;23;20245;-76
2021/01/31 10:51:32;;;;;;;1.40;1.40;;;0.70;99.90;;;;;;6214410;23;20166;-76
2021/01/31 10:54:00;;;;;;;1.40;1.40;;;0.80;99.90;;;;;;6213331;23;20162;-77
2021/01/31 10:56:27;;;;;;;1.50;1.50;;;0.80;99.90;;;;;;6215127;23;20268;-76
2021/01/31 10:58:58;;;;;;;1.40;1.40;;;0.90;99.90;;;;;;6215786;23;20186;-76
2021/01/31 11:01:29;;;;;;;1.40;1.40;;;1.10;99.90;;;;;;6215594;23;20177;-77
2021/01/31 11:03:56;;;;;;;1.40;1.40;;;0.80;99.90;;;;;;6216782;23;20199;-77
2021/01/31 11:06:23;;;;;;;1.33;1.33;;;1.00;99.90;;;;;;6215937;23;20248;-78
2021/01/31 11:08:51;;;;;;;1.37;1.37;;;1.00;99.90;;;;;;6216437;23;20182;-77
2021/01/31 11:11:19;;;;;;;1.30;1.30;;;1.10;99.90;;;;;;6215510;23;20285;-77
2021/01/31 11:13:47;;;;;;;1.40;1.40;;;;;;;;;;6214960;23;20224;-75
2021/01/31 11:16:14;;;;;;;1.30;1.30;;;1.20;99.90;;;;;;6211997;23;20210;-75
2021/01/31 11:18:42;;;;;;;1.30;1.30;;;1.10;99.90;;;;;;6213632;23;20184;-74
2021/01/31 11:21:09;;;;;;;1.50;1.50;;;1.20;99.90;;;;;;6214431;23;20174;-74
2021/01/31 11:23:36;;;;;;;1.20;1.20;;;1.40;99.90;;;;;;6214039;23;20179;-75
2021/01/31 11:26:03;;;;;;;1.30;1.30;;;1.10;99.90;;;;;;6214182;23;20252;-75
2021/01/31 11:28:30;;;;;;;1.30;1.30;;;1.30;99.90;;;;;;6214815;23;20232;-75
2021/01/31 11:30:57;;;;;;;1.40;1.40;;;1.30;99.90;;;;;;6214237;23;20178;-76
2021/01/31 11:33:24;;;;;;;1.20;1.20;;;1.40;99.90;;;;;;6214246;23;20182;-74
2021/01/31 11:35:51;;;;;;;1.20;1.20;;;1.00;99.90;;;;;;6214681;23;20248;-77
2021/01/31 11:38:18;;;;;;;1.23;1.23;;;1.30;99.90;;;;;;6213987;23;20543;-76
2021/01/31 11:40:45;;;;;;;1.30;1.30;;;1.70;99.90;;;;;;6214150;23;20178;-76
2021/01/31 11:43:12;;;;;;;1.20;1.20;;;1.60;99.90;;;;;;6214034;23;20229;-76
2021/01/31 11:45:39;;;;;;;1.30;1.30;;;1.50;99.90;;;;;;6213924;23;20252;-76
2021/01/31 11:48:07;;;;;;;1.30;1.30;;;1.50;99.90;;;;;;6213504;23;20544;-76
2021/01/31 11:50:33;;;;;;;1.20;1.20;;;1.40;99.90;;;;;;6213606;23;20566;-76
2021/01/31 11:53:02;;;;;;;1.30;1.30;;;1.50;99.90;;;;;;6214140;23;20182;-77
2021/01/31 11:55:29;;;;;;;1.10;1.10;;;1.60;99.90;;;;;;6214589;23;20177;-78
2021/01/31 11:57:56;;;;;;;1.10;1.10;;;1.70;99.90;;;;;;6214182;23;20240;-77
2021/01/31 12:00:23;;;;;;;1.20;1.20;;;1.60;99.90;;;;;;6214486;23;20174;-77
2021/01/31 12:02:52;;;;;;;1.30;1.30;;;1.40;99.90;;;;;;6213935;23;20174;-75
2021/01/31 12:05:22;;;;;;;1.40;1.40;;;1.40;99.90;;;;;;6213341;23;20178;-75
2021/01/31 12:07:49;;;;;;;1.30;1.30;;;1.50;99.90;;;;;;6213945;23;20192;-77
2021/01/31 12:10:18;;;;;;;1.40;1.40;;;1.40;99.90;;;;;;6214227;23;20178;-74
2021/01/31 12:12:46;;;;;;;1.20;1.20;;;1.50;99.90;;;;;;6213407;23;20554;-77
2021/01/31 12:15:15;;;;;;;1.30;1.30;;;1.50;99.90;;;;;;6214500;23;20174;-77
2021/01/31 12:17:42;;;;;;;1.20;1.20;;;1.60;99.90;;;;;;6213357;23;20193;-77
2021/01/31 12:20:12;;;;;;;1.10;1.10;;;1.60;99.90;;;;;;6214275;23;20182;-77
2021/01/31 12:22:39;;;;;;;1.40;1.40;;;1.60;99.90;;;;;;6215005;23;20159;-77
2021/01/31 12:25:08;;;;;;;1.33;1.33;;;1.60;99.90;;;;;;6214324;23;20173;-77
2021/01/31 12:27:36;;;;;;;1.30;1.30;;;1.60;99.90;;;;;;6213431;23;20174;-75
2021/01/31 12:30:04;;;;;;;1.20;1.20;;;;;;;;;;6213814;22;20206;-77
2021/01/31 12:32:33;;;;;;;1.30;1.30;;;1.70;99.90;;;;;;6213939;23;20687;-78
2021/01/31 12:35:00;;;;;;;1.30;1.30;;;1.80;99.90;;;;;;6214286;23;20559;-77
2021/01/31 12:37:26;;;;;;;1.20;1.20;;;1.90;99.90;;;;;;6216127;23;20721;-77
2021/01/31 12:39:56;;;;;;;1.40;1.40;;;2.00;99.90;;;;;;6215239;23;20742;-77
2021/01/31 12:42:23;;;;;;;1.20;1.20;;;2.00;99.90;;;;;;6216705;23;20185;-75
2021/01/31 12:44:51;;;;;;;1.10;1.10;;;2.00;99.90;;;;;;6217287;23;20174;-75
2021/01/31 12:47:18;;;;;;;1.30;1.30;;;2.10;99.90;;;;;;6216002;23;20181;-76
2021/01/31 12:49:45;;;;;;;1.10;1.10;;;2.10;99.90;;;;;;6215699;23;20202;-75
2021/01/31 12:52:12;;;;;;;1.30;1.30;;;2.10;99.90;;;;;;6217279;23;20228;-77
2021/01/31 12:54:40;;;;;;;1.10;1.10;;;2.00;99.90;;;;;;6219432;23;20205;-77
2021/01/31 12:57:07;;;;;;;1.10;1.10;;;2.10;99.90;;;;;;6216318;23;20660;-75
2021/01/31 12:59:34;;;;;;;1.30;1.30;;;2.20;99.90;;;;;;6214955;23;20253;-75
2021/01/31 13:02:02;;;;;;;1.10;1.10;;;2.20;99.90;;;;;;6215860;23;20155;-78
2021/01/31 13:04:29;;;;;;;1.27;1.27;;;2.20;99.90;;;;;;6216151;23;20186;-77
2021/01/31 13:06:56;;;;;;;1.40;1.40;;;2.20;99.90;;;;;;6216689;23;20174;-79
2021/01/31 13:09:29;;;;;;;1.30;1.30;;;2.50;99.90;;;;;;6215835;23;20197;-78
2021/01/31 13:11:56;;;;;;;1.30;1.30;;;2.30;99.90;;;;;;6216116;23;20218;-78
2021/01/31 13:14:23;;;;;;;1.20;1.20;;;2.30;99.90;;;;;;6214784;23;20190;-79
2021/01/31 13:16:50;;;;;;;1.10;1.10;;;;;;;;;;6216441;23;20561;-77
2021/01/31 13:19:18;;;;;;;1.10;1.10;;;2.30;99.90;;;;;;6216538;23;20194;-77
2021/01/31 13:21:45;;;;;;;1.30;1.30;;;2.40;99.90;;;;;;6216680;23;20229;-78
2021/01/31 13:24:12;;;;;;;1.30;1.30;;;2.50;99.90;;;;;;6217416;23;20264;-77
2021/01/31 13:26:39;;;;;;;1.10;1.10;;;2.60;99.90;;;;;;6216233;23;20170;-78
2021/01/31 13:29:06;;;;;;;1.40;1.40;;;2.70;99.90;;;;;;6216655;23;20202;-78
2021/01/31 13:31:33;;;;;;;1.30;1.30;;;2.70;99.90;;;;;;6216830;23;20170;-77
2021/01/31 13:34:00;;;;;;;1.10;1.10;;;2.80;99.90;;;;;;6217001;23;20228;-78
2021/01/31 13:36:28;;;;;;;1.10;1.10;;;3.00;99.90;;;;;;6215071;23;20186;-76
2021/01/31 13:38:55;;;;;;;1.10;1.10;;;3.10;99.90;;;;;;6216093;23;20194;-77
2021/01/31 13:41:22;;;;;;;1.20;1.20;;;3.00;99.90;;;;;;6216141;23;20185;-78
2021/01/31 13:43:49;;;;;;;1.10;1.10;;;3.10;99.90;;;;;;6216189;23;20177;-77
2021/01/31 13:46:16;;;;;;;1.00;1.00;;;3.10;99.90;;;;;;6216482;23;20247;-78
2021/01/31 13:48:42;;;;;;;1.20;1.20;;;3.20;99.90;;;;;;6217295;23;20178;-79
2021/01/31 13:51:10;;;;;;;1.17;1.17;;;;;;;;;;6218758;23;20185;-79
2021/01/31 13:53:38;;;;;;;1.00;1.00;;;3.10;97.40;;;;;;6218305;23;20249;-79
2021/01/31 13:56:05;;;;;;;1.40;1.40;;;3.20;99.90;;;;;;6218394;23;20205;-79
2021/01/31 13:58:32;;;;;;;1.13;1.13;;;3.30;99.90;;;;;;6218037;23;20623;-79
2021/01/31 14:00:59;;;;;;;1.20;1.20;;;3.30;99.50;;;;;;6218542;23;20178;-80
2021/01/31 14:03:25;;;;;;;1.10;1.10;;;3.30;99.90;;;;;;6217632;23;20633;-80
2021/01/31 14:05:52;;;;;;;1.10;1.10;;;3.40;99.90;;;;;;6217643;23;20187;-80
2021/01/31 14:08:19;;;;;;;1.10;1.10;;;3.40;99.60;;;;;;6216815;23;20174;-80
2021/01/31 14:10:47;;;;;;;1.20;1.20;;;3.30;99.90;;;;;;6217219;23;20252;-79
2021/01/31 14:13:14;;;;;;;1.27;1.27;;;3.50;99.80;;;;;;6217895;23;20178;-79
2021/01/31 14:15:41;;;;;;;1.20;1.20;;;3.50;99.10;;;;;;6217134;23;20174;-78
2021/01/31 14:18:08;;;;;;;1.20;1.20;;;3.60;99.60;;;;;;6218098;23;20220;-81
2021/01/31 14:20:35;;;;;;;1.10;1.10;;;3.90;99.20;;;;;;6217863;23;20559;-80
2021/01/31 14:23:02;;;;;;;1.30;1.30;;;3.50;99.70;;;;;;6215332;23;20248;-81
2021/01/31 14:25:30;;;;;;;1.10;1.10;;;3.60;99.90;;;;;;6217110;23;20174;-81
2021/01/31 14:27:57;;;;;;;1.17;1.17;;;3.70;99.90;;;;;;6217614;23;20233;-83
2021/01/31 14:30:26;;;;;;;1.20;1.20;;;3.80;99.70;;;;;;6216724;23;20236;-78
2021/01/31 14:32:54;;;;;;;1.10;1.10;;;3.70;98.80;;;;;;6217248;23;20185;-80
2021/01/31 14:35:23;;;;;;;1.20;1.20;;;3.70;99.50;;;;;;6216949;23;20220;-83
2021/01/31 14:37:50;;;;;;;1.00;1.00;;;3.60;98.40;;;;;;6216629;23;20591;-82
2021/01/31 14:40:19;;;;;;;1.10;1.10;;;3.60;98.00;;;;;;6216115;23;20213;-83
2021/01/31 14:42:46;;;;;;;1.27;1.27;;;3.60;98.50;;;;;;6215766;23;20205;-81
2021/01/31 14:45:17;;;;;;;1.20;1.20;;;3.60;98.70;;;;;;6216677;23;20178;-81
2021/01/31 14:47:44;;;;;;;1.10;1.10;;;3.60;98.40;;;;;;6216511;23;20158;-82
2021/01/31 14:50:12;;;;;;;1.10;1.10;;;3.60;99.60;;;;;;6217609;23;20575;-82
2021/01/31 14:52:39;;;;;;;1.10;1.10;;;3.60;98.90;;;;;;6217444;23;20213;-79
2021/01/31 14:55:08;;;;;;;1.10;1.10;;;3.60;99.60;;;;;;6216187;23;20249;-79
2021/01/31 14:57:35;;;;;;;1.20;1.20;;;3.50;99.40;;;;;;6215280;23;20269;-78
2021/01/31 15:00:05;;;;;;;1.10;1.10;;;3.50;99.90;;;;;;6215354;23;20202;-82
2021/01/31 15:02:35;;;;;;;1.20;1.20;;;3.50;99.90;;;;;;6215207;23;20617;-79
2021/01/31 15:05:02;;;;;;;1.10;1.10;;;3.50;99.90;;;;;;6215210;23;20178;-81
2021/01/31 15:07:29;;;;;;;1.10;1.10;;;3.40;99.30;;;;;;6215646;23;20175;-80
2021/01/31 15:09:56;;;;;;;1.20;1.20;;;3.30;99.60;;;;;;6214722;23;20197;-80
2021/01/31 15:12:23;;;;;;;1.20;1.20;;;3.20;99.90;;;;;;6215192;23;20704;-79
2021/01/31 15:14:50;;;;;;;1.20;1.20;;;3.30;99.90;;;;;;6231016;23;20154;-77
2021/01/31 15:17:17;;;;;;;1.10;1.10;;;3.30;99.60;;;;;;6242638;22;20185;-79
2021/01/31 15:19:49;;;;;;;1.20;1.20;;;3.20;99.90;;;;;;6219440;23;20230;-82
2021/01/31 15:22:16;;;;;;;1.20;1.20;;;3.50;99.90;;;;;;6215788;23;20174;-81
2021/01/31 15:24:43;;;;;;;1.10;1.10;;;3.20;99.90;;;;;;6215655;23;20178;-83
2021/01/31 15:27:10;;;;;;;1.30;1.30;;;;;;;;;;6215467;23;20171;-81
2021/01/31 15:29:37;;;;;;;1.20;1.20;;;3.10;99.90;;;;;;6215682;23;20214;-81
2021/01/31 15:32:05;;;;;;;1.30;1.30;;;3.00;99.90;;;;;;6216592;23;20173;-83
2021/01/31 15:34:32;;;;;;;1.40;1.40;;;2.90;99.90;;;;;;6215117;23;20632;-81
2021/01/31 15:37:00;;;;;;;1.10;1.10;;;2.80;99.90;;;;;;6215163;23;20220;-82
2021/01/31 15:39:27;;;;;;;1.20;1.20;;;2.80;99.90;;;;;;6214765;23;20202;-81
2021/01/31 15:41:54;;;;;;;1.30;1.30;;;2.60;99.90;;;;;;6215473;23;20170;-82
2021/01/31 15:44:21;;;;;;;1.20;1.20;;;2.70;99.90;;;;;;6215249;23;20540;-80
2021/01/31 15:46:48;;;;;;;1.20;1.20;;;2.90;99.90;;;;;;6215639;23;20173;-82
2021/01/31 15:49:15;;;;;;;1.30;1.30;;;2.50;99.90;;;;;;6215490;23;20198;-81
2021/01/31 15:51:42;;;;;;;1.20;1.20;;;2.30;99.90;;;;;;6215969;23;20174;-80
2021/01/31 15:54:09;;;;;;;1.20;1.20;;;2.10;99.90;;;;;;6215615;23;20648;-81
2021/01/31 15:56:37;;;;;;;1.30;1.30;;;2.10;99.90;;;;;;6215576;23;20648;-81
2021/01/31 15:59:03;;;;;;;1.20;1.20;;;2.00;99.90;;;;;;6215583;23;20206;-80
2021/01/31 16:01:34;;;;;;;1.20;1.20;;;1.80;99.90;;;;;;6215392;23;20181;-80
2021/01/31 16:04:01;;;;;;;1.20;1.20;;;1.80;99.90;;;;;;6216434;23;20160;-80
2021/01/31 16:06:28;;;;;;;1.10;1.10;;;;;;;;;;6214865;23;20699;-79
2021/01/31 16:08:55;;;;;;;1.30;1.30;;;1.80;99.90;;;;;;6214519;23;20197;-77
2021/01/31 16:11:23;;;;;;;1.20;1.20;;;1.70;99.90;;;;;;6219322;23;20204;-78
2021/01/31 16:13:50;;;;;;;1.20;1.20;;;1.70;99.90;;;;;;6221165;23;20555;-83
2021/01/31 16:16:17;;;;;;;1.20;1.20;;;;;;;;;;6223057;23;20574;-83
2021/01/31 16:18:48;;;;;;;1.30;1.30;;;1.70;99.90;;;;;;6222042;23;20186;-83
2021/01/31 16:21:15;;;;;;;1.20;1.20;;;;;;;;;;6222561;23;20545;-84
2021/01/31 16:23:42;;;;;;;1.43;1.43;;;;;;;;;;6221046;23;20177;-81
2021/01/31 16:26:10;;;;;;;1.13;1.13;;;1.70;99.90;;;;;;6219052;23;20178;-82
2021/01/31 16:28:38;;;;;;;1.30;1.30;;;1.70;99.90;;;;;;6218660;23;20224;-81
2021/01/31 16:31:24;;;;;;;1.30;1.30;;;1.50;99.90;;;;;;6224876;23;20216;-82
2021/01/31 16:33:52;;;;;;;1.30;1.30;;;1.50;99.90;;;;;;6237429;23;20212;-83
2021/01/31 16:36:19;;;;;;;1.20;1.20;;;1.40;99.90;;;;;;6220577;23;20192;-82
2021/01/31 16:38:46;;;;;;;1.40;1.40;;;1.20;99.90;;;;;;6220209;23;20198;-81
2021/01/31 16:41:17;;;;;;;1.20;1.20;;;;;;;;;;6221089;23;20167;-82
2021/01/31 16:43:46;;;;;;;1.30;1.30;;;1.30;99.90;;;;;;6220652;23;20224;-82
2021/01/31 16:46:13;;;;;;;1.40;1.40;;;;;;;;;;6221971;23;20178;-84
2021/01/31 16:48:41;;;;;;;1.20;1.20;;;;;;;;;;6224710;23;20193;-83
2021/01/31 16:51:08;;;;;;;1.40;1.40;;;;;;;;;;6227704;23;20184;-84
2021/01/31 16:53:35;;;;;;;1.20;1.20;;;;;;;;;;6229755;23;20174;-84
2021/01/31 16:56:04;;;;;;;1.50;1.50;;;;;;;;;;6227260;23;20184;-84
2021/01/31 16:58:31;;;;;;;1.50;1.50;;;;;;;;;;6233176;23;20202;-80
2021/01/31 17:00:59;;;;;;;1.30;1.30;;;1.10;99.90;;;;;;6227484;23;20178;-80
2021/01/31 17:03:26;;;;;;;1.40;1.40;;;1.10;99.90;;;;;;6226642;23;20169;-80
2021/01/31 17:05:52;;;;;;;1.30;1.30;;;1.00;99.90;;;;;;6225664;23;20178;-78
2021/01/31 17:08:20;;;;;;;1.20;1.20;;;1.00;99.90;;;;;;6218920;23;20635;-79
2021/01/31 17:10:47;;;;;;;1.30;1.30;;;1.00;99.90;;;;;;6220125;23;20528;-77
2021/01/31 17:13:14;;;;;;;1.30;1.30;;;1.00;99.90;;;;;;6218295;23;20209;-78
2021/01/31 17:15:41;;;;;;;1.20;1.20;;;1.10;99.90;;;;;;6218211;23;20178;-78
2021/01/31 17:18:09;;;;;;;1.30;1.30;;;1.00;99.90;;;;;;6218519;23;20190;-78
2021/01/31 17:20:36;;;;;;;1.40;1.40;;;0.90;99.90;;;;;;6219384;23;20198;-78
2021/01/31 17:23:03;;;;;;;1.30;1.30;;;;;;;;;;6216876;23;20568;-78
2021/01/31 17:25:30;;;;;;;1.20;1.20;;;0.80;99.90;;;;;;6217643;23;20177;-79
2021/01/31 17:27:58;;;;;;;1.30;1.30;;;0.80;99.90;;;;;;6218642;23;20249;-78
2021/01/31 17:30:27;;;;;;;1.30;1.30;;;0.60;99.90;;;;;;6218477;23;20209;-79
2021/01/31 17:32:54;;;;;;;1.40;1.40;;;0.60;99.90;;;;;;6220065;23;20236;-78
2021/01/31 17:35:25;;;;;;;1.30;1.30;;;0.70;99.90;;;;;;6219928;23;20566;-79
2021/01/31 17:37:53;;;;;;;1.40;1.40;;;0.70;99.90;;;;;;6216678;23;20735;-78
2021/01/31 17:40:22;;;;;;;1.30;1.30;;;0.70;99.90;;;;;;6217144;23;20194;-80
2021/01/31 17:42:53;;;;;;;1.40;1.40;;;0.60;99.90;;;;;;6216069;23;20189;-78
2021/01/31 17:45:22;;;;;;;1.30;1.30;;;0.60;99.90;;;;;;6219043;23;20166;-79
2021/01/31 17:47:49;;;;;;;1.30;1.30;;;0.50;99.90;;;;;;6235049;23;20233;-79
2021/01/31 17:50:19;;;;;;;1.40;1.40;;;0.50;99.90;;;;;;6226971;23;20555;-79
2021/01/31 17:52:47;;;;;;;1.40;1.40;;;0.50;99.90;;;;;;6217587;23;20174;-78
2021/01/31 17:55:16;;;;;;;1.40;1.40;;;0.50;99.90;;;;;;6217188;23;20182;-79
2021/01/31 17:57:43;;;;;;;1.30;1.30;;;0.50;99.90;;;;;;6217223;23;20221;-81
2021/01/31 18:00:11;;;;;;;1.43;1.43;;;0.40;99.90;;;;;;6216611;23;20194;-79
2021/01/31 18:02:38;;;;;;;1.30;1.30;;;;;;;;;;6218081;23;20217;-77
2021/01/31 18:05:06;;;;;;;1.20;1.20;;;0.40;99.90;;;;;;6216880;23;20636;-79
2021/01/31 18:07:33;;;;;;;1.40;1.40;;;0.40;99.90;;;;;;6217834;23;20170;-79
2021/01/31 18:10:01;;;;;;;1.23;1.23;;;0.10;99.90;;;;;;6216592;23;20202;-79
2021/01/31 18:12:30;;;;;;;1.30;1.30;;;0.20;99.90;;;;;;6217200;23;20281;-79
2021/01/31 18:14:57;;;;;;;1.40;1.40;;;0.20;99.90;;;;;;6216779;23;20178;-78
2021/01/31 18:17:24;;;;;;;1.30;1.30;;;0.20;99.90;;;;;;6215980;23;20162;-78
2021/01/31 18:19:51;;;;;;;1.40;1.40;;;0.20;99.90;;;;;;6215692;23;20198;-79
2021/01/31 18:22:18;;;;;;;1.40;1.40;;;0.20;99.90;;;;;;6216114;23;20636;-78
2021/01/31 18:24:45;;;;;;;1.20;1.20;;;0.20;99.90;;;;;;6217254;23;20182;-79
2021/01/31 18:27:13;;;;;;;1.60;1.60;;;0.20;99.90;;;;;;6218183;23;20205;-78
2021/01/31 18:29:40;;;;;;;1.30;1.30;;;0.20;99.90;;;;;;6216745;23;20205;-79
2021/01/31 18:32:07;;;;;;;1.40;1.40;;;;;;;;;;6215495;22;20260;-78
2021/01/31 18:34:34;;;;;;;1.30;1.30;;;0.10;99.90;;;;;;6215161;23;20170;-77
2021/01/31 18:37:01;;;;;;;1.20;1.20;;;0.10;99.90;;;;;;6216628;23;20186;-78
2021/01/31 18:39:27;;;;;;;1.30;1.30;;;0.00;99.90;;;;;;6217597;23;20198;-78
2021/01/31 18:41:54;;;;;;;1.30;1.30;;;-0.10;99.90;;;;;;6217073;23;20198;-78
2021/01/31 18:44:22;;;;;;;1.30;1.30;;;-0.10;99.90;;;;;;6221869;23;20177;-78
2021/01/31 18:46:49;;;;;;;1.30;1.30;;;-0.10;99.90;;;;;;6217620;23;20178;-78
2021/01/31 18:49:16;;;;;;;1.30;1.30;;;-0.10;99.90;;;;;;6215613;23;20651;-78
2021/01/31 18:51:43;;;;;;;1.30;1.30;;;-0.20;99.90;;;;;;6216194;23;20205;-78
2021/01/31 18:54:10;;;;;;;1.20;1.20;;;-0.10;99.90;;;;;;6215619;23;20178;-78
2021/01/31 18:56:42;;;;;;;1.30;1.30;;;-0.20;99.90;;;;;;6215353;23;20567;-78
2021/01/31 18:59:10;;;;;;;1.33;1.33;;;-0.30;99.90;;;;;;6215979;23;20714;-78
2021/01/31 19:01:42;;;;;;;1.30;1.30;;;-0.30;99.90;;;;;;6219501;23;20753;-78
2021/01/31 19:04:09;;;;;;;1.40;1.40;;;-0.30;99.90;;;;;;6217813;23;20228;-78
2021/01/31 19:06:36;;;;;;;1.30;1.30;;;-0.30;99.90;;;;;;6216461;23;20185;-79
2021/01/31 19:09:03;;;;;;;1.60;1.60;;;-0.30;99.90;;;;;;6213563;23;20185;-77
2021/01/31 19:11:30;;;;;;;1.30;1.30;;;0.30;99.90;;;;;;6216346;23;20198;-76
2021/01/31 19:13:57;;;;;;;1.47;1.47;;;-0.40;99.90;;;;;;6219839;23;20174;-76
2021/01/31 19:16:24;;;;;;;1.30;1.30;;;-0.60;99.90;;;;;;6214422;23;20209;-77
2021/01/31 19:18:52;;;;;;;1.43;1.43;;;-0.60;99.90;;;;;;6218284;23;20190;-79
2021/01/31 19:21:19;;;;;;;1.43;1.43;;;-0.60;99.90;;;;;;6222704;23;20220;-79
2021/01/31 19:23:45;;;;;;;1.30;1.30;;;-0.60;99.90;;;;;;6227770;23;20188;-78
2021/01/31 19:26:13;;;;;;;1.30;1.30;;;-0.70;99.90;;;;;;6216742;23;20178;-76
2021/01/31 19:28:40;;;;;;;1.40;1.40;;;-0.60;99.90;;;;;;6214433;23;20174;-77
2021/01/31 19:31:07;;;;;;;1.30;1.30;;;-0.50;99.90;;;;;;6213644;23;20209;-76
2021/01/31 19:33:34;;;;;;;1.50;1.50;;;-0.60;99.90;;;;;;6214185;23;20699;-76